Time;durP1;ratioP1;P1;durP2;ratioP2;P2;SDS_P1;SDS_P2;PMS_P1;PMS_P2;Temp;Humidity;BMP_temperature;BMP_pressure;BME280_temperature;BME280_humidity;BME280_pressure;Samples;Min_cycle;Max_cycle;Signal;HPM_P1;HPM_P2
2022/01/31 00:00:49;;;;;;;18.83;7.50;;;;;;;5.61;54.51;97885.28;5064869;28;20444;-71
2022/01/31 00:03:34;;;;;;;12.80;6.20;;;;;;;5.63;54.86;97886.00;5063142;28;20513;-71
2022/01/31 00:06:18;;;;;;;11.33;6.50;;;;;;;5.60;55.05;97887.06;5073231;28;20433;-71
2022/01/31 00:09:02;;;;;;;16.87;6.67;;;;;;;5.65;55.48;97879.78;5051805;28;20904;-71
2022/01/31 00:11:55;;;;;;;13.13;6.83;;;;;;;5.66;54.86;97873.66;5062014;28;20425;-70
2022/01/31 00:14:43;;;;;;;19.20;6.60;;;;;;;5.62;55.07;97874.78;5065333;28;20826;-71
2022/01/31 00:17:26;;;;;;;18.07;6.80;;;;;;;5.64;55.14;97872.91;5064218;28;20428;-71
2022/01/31 00:20:10;;;;;;;13.20;5.70;;;;;;;5.66;55.45;97871.03;5059394;28;20488;-71
2022/01/31 00:22:54;;;;;;;18.03;6.63;;;;;;;5.68;55.74;97861.34;5054076;28;20425;-71
2022/01/31 00:25:38;;;;;;;125.03;64.33;;;;;;;5.63;55.55;97870.41;5069168;28;20857;-71
2022/01/31 00:28:22;;;;;;;152.53;77.40;;;;;;;5.67;55.69;97857.06;5061369;28;20435;-71
2022/01/31 00:31:06;;;;;;;121.50;60.10;;;;;;;5.73;55.28;97845.44;5061173;28;20840;-71
2022/01/31 00:33:50;;;;;;;55.37;27.50;;;;;;;5.76;55.36;97831.38;5068362;28;20649;-71
2022/01/31 00:36:33;;;;;;;33.73;16.47;;;;;;;5.78;55.33;97819.94;5070511;28;20483;-71
2022/01/31 00:39:18;;;;;;;30.83;13.90;;;;;;;5.84;55.17;97831.66;5064112;28;20430;-71
2022/01/31 00:42:04;;;;;;;29.60;16.37;;;;;;;5.88;55.26;97856.53;5064466;28;20950;-72
2022/01/31 00:44:53;;;;;;;30.70;15.00;;;;;;;5.93;55.42;97851.84;5044307;28;20790;-71
2022/01/31 00:47:40;;;;;;;29.20;11.80;;;;;;;5.94;55.05;97843.09;5070778;28;20446;-71
2022/01/31 00:50:24;;;;;;;29.50;11.80;;;;;;;5.90;55.23;97831.25;5063422;28;20472;-71
2022/01/31 00:53:08;;;;;;;21.27;9.70;;;;;;;5.84;55.32;97810.84;5072048;28;20458;-72
2022/01/31 00:55:52;;;;;;;17.80;7.90;;;;;;;5.77;55.32;97809.63;5056429;28;20535;-72
2022/01/31 00:58:36;;;;;;;20.50;7.63;;;;;;;5.82;55.44;97802.31;5063786;28;20442;-72
2022/01/31 01:01:20;;;;;;;14.90;6.77;;;;;;;5.80;54.96;97778.19;5063254;28;20895;-72
2022/01/31 01:04:03;;;;;;;17.17;7.27;;;;;;;5.79;55.21;97766.16;5060580;28;20451;-72
2022/01/31 01:06:47;;;;;;;15.23;5.73;;;;;;;5.78;55.86;97764.47;5063832;28;20790;-71
2022/01/31 01:09:31;;;;;;;14.10;5.80;;;;;;;5.81;56.08;97765.09;5063237;28;20882;-71
2022/01/31 01:12:17;;;;;;;17.73;6.50;;;;;;;5.95;55.71;97745.88;5063871;28;20431;-71
2022/01/31 01:15:00;;;;;;;14.80;6.73;;;;;;;5.94;56.08;97746.81;5053771;28;20507;-72
2022/01/31 01:17:45;;;;;;;14.53;6.87;;;;;;;6.00;56.07;97748.19;5063076;28;20454;-72
2022/01/31 01:20:29;;;;;;;14.83;6.00;;;;;;;6.11;55.83;97739.63;5070311;28;20475;-72
2022/01/31 01:23:13;;;;;;;14.27;5.90;;;;;;;6.14;55.85;97724.59;5067262;28;20841;-71
2022/01/31 01:25:57;;;;;;;13.30;5.40;;;;;;;6.21;55.93;97727.59;5051685;28;20524;-71
2022/01/31 01:28:44;;;;;;;18.73;7.20;;;;;;;6.28;55.58;97709.75;5070730;28;20464;-71
2022/01/31 01:31:27;;;;;;;14.73;7.10;;;;;;;6.34;55.39;97693.69;5063339;28;20426;-71
2022/01/31 01:34:12;;;;;;;18.97;8.50;;;;;;;6.30;55.11;97672.22;5061907;28;20923;-71
2022/01/31 01:36:55;;;;;;;16.37;7.80;;;;;;;6.30;55.09;97668.81;5063641;28;20807;-71
2022/01/31 01:39:41;;;;;;;16.77;7.60;;;;;;;6.32;55.03;97674.75;5060601;28;20452;-70
2022/01/31 01:42:24;;;;;;;13.40;6.97;;;;;;;6.34;55.25;97674.63;5067825;28;20484;-71
2022/01/31 01:45:08;;;;;;;17.90;6.97;;;;;;;6.40;55.16;97677.59;5060215;28;20427;-71
2022/01/31 01:47:52;;;;;;;13.50;5.17;;;;;;;6.39;55.32;97643.88;5059818;28;20434;-71
2022/01/31 01:50:38;;;;;;;18.37;9.17;;;;;;;6.40;55.17;97625.53;5069288;28;20989;-70
2022/01/31 01:53:22;;;;;;;45.53;21.00;;;;;;;6.32;55.16;97616.63;5063376;28;20491;-71
2022/01/31 01:56:07;;;;;;;37.40;14.17;;;;;;;6.35;55.05;97564.31;5051950;28;20436;-71
2022/01/31 01:58:51;;;;;;;19.43;9.57;;;;;;;6.26;55.58;97566.69;5069555;28;20543;-70
2022/01/31 02:01:35;;;;;;;16.10;7.27;;;;;;;6.30;55.27;97551.66;5066143;28;20836;-70
2022/01/31 02:04:19;;;;;;;22.10;6.70;;;;;;;6.36;55.59;97535.59;5059551;28;20502;-71
2022/01/31 02:07:03;;;;;;;13.73;5.73;;;;;;;6.32;55.83;97541.97;5059538;28;20464;-72
2022/01/31 02:09:54;;;;;;;12.93;4.20;;;;;;;6.39;55.37;97529.31;5038324;28;20472;-71
2022/01/31 02:12:41;;;;;;;9.70;4.90;;;;;;;6.40;55.13;97499.72;5066818;28;20443;-71
2022/01/31 02:15:26;;;;;;;13.60;5.07;;;;;;;6.37;55.15;97489.53;5062932;28;20512;-71
2022/01/31 02:18:10;;;;;;;14.10;4.73;;;;;;;6.28;55.40;97491.91;5062629;28;20841;-71
2022/01/31 02:20:54;;;;;;;10.77;4.57;;;;;;;6.23;55.67;97496.63;5051781;28;20448;-71
2022/01/31 02:23:38;;;;;;;17.77;5.00;;;;;;;6.18;55.71;97490.94;5061373;28;20491;-71
2022/01/31 02:26:22;;;;;;;15.60;5.10;;;;;;;6.15;55.55;97493.81;5061847;28;20442;-70
2022/01/31 02:29:08;;;;;;;12.63;5.13;;;;;;;6.05;55.78;97490.25;5062220;28;20803;-71
2022/01/31 02:31:52;;;;;;;14.13;4.50;;;;;;;5.99;56.29;97470.66;5065607;28;20426;-71
2022/01/31 02:34:36;;;;;;;15.20;5.67;;;;;;;5.87;56.64;97477.66;5060885;28;20465;-71
2022/01/31 02:37:20;;;;;;;14.57;5.40;;;;;;;5.82;56.32;97472.81;5063355;28;20467;-70
2022/01/31 02:40:04;;;;;;;14.43;5.30;;;;;;;5.98;56.11;97477.66;5070775;28;20556;-71
2022/01/31 02:42:51;;;;;;;13.37;5.00;;;;;;;6.04;56.41;97475.59;5050839;28;20413;-71
2022/01/31 02:45:35;;;;;;;12.80;5.57;;;;;;;6.17;56.04;97484.09;5067307;28;20426;-71
2022/01/31 02:48:23;;;;;;;15.10;5.27;;;;;;;6.23;56.16;97472.41;5059242;28;20440;-71
2022/01/31 02:51:10;;;;;;;20.33;5.70;;;;;;;6.18;56.39;97458.91;5058950;28;20459;-71
2022/01/31 02:53:55;;;;;;;10.77;5.13;;;;;;;6.23;55.83;97435.97;5037401;28;20434;-71
2022/01/31 02:56:40;;;;;;;19.23;5.50;;;;;;;6.14;55.67;97427.91;5069558;28;20433;-71
2022/01/31 02:59:24;;;;;;;12.73;5.30;;;;;;;6.22;56.08;97414.28;5051616;28;20462;-70
2022/01/31 03:02:08;;;;;;;13.47;5.17;;;;;;;6.12;55.77;97382.13;5068583;28;20440;-70
2022/01/31 03:04:52;;;;;;;14.97;4.80;;;;;;;6.15;55.81;97366.28;5051467;28;20474;-71
2022/01/31 03:07:36;;;;;;;10.90;4.97;;;;;;;6.26;55.94;97374.06;5069015;28;20435;-71
2022/01/31 03:10:20;;;;;;;11.47;5.07;;;;;;;6.26;56.14;97368.88;5070472;28;20504;-71
2022/01/31 03:13:04;;;;;;;14.53;4.63;;;;;;;6.30;55.88;97365.03;5069776;28;20440;-71
2022/01/31 03:15:51;;;;;;;13.87;5.80;;;;;;;6.29;55.49;97367.78;5067145;28;20845;-71
2022/01/31 03:18:35;;;;;;;12.73;5.00;;;;;;;6.28;55.34;97345.31;5072064;28;20429;-71
2022/01/31 03:21:19;;;;;;;12.23;5.00;;;;;;;6.17;55.58;97346.16;5066009;28;20816;-71
2022/01/31 03:24:03;;;;;;;13.60;5.67;;;;;;;6.05;55.90;97321.13;5062484;28;20846;-71
2022/01/31 03:26:47;;;;;;;15.90;6.47;;;;;;;6.17;56.07;97322.75;5065494;28;20432;-71
2022/01/31 03:29:31;;;;;;;16.33;5.60;;;;;;;6.00;55.94;97318.84;5065167;28;20557;-71
2022/01/31 03:32:15;;;;;;;12.33;5.50;;;;;;;6.03;55.97;97300.41;5059208;28;20487;-71
2022/01/31 03:34:59;;;;;;;12.90;5.00;;;;;;;6.06;56.23;97294.13;5067011;28;20431;-71
2022/01/31 03:37:43;;;;;;;9.53;4.93;;;;;;;5.87;56.35;97274.75;5075329;28;20473;-70
2022/01/31 03:40:27;;;;;;;18.47;6.33;;;;;;;5.96;56.55;97252.38;5064557;28;20451;-71
2022/01/31 03:43:10;;;;;;;20.57;5.43;;;;;;;5.97;56.81;97223.63;5068783;28;20485;-71
2022/01/31 03:45:55;;;;;;;21.53;5.30;;;;;;;5.61;57.20;97241.22;5058623;28;20449;-71
2022/01/31 03:48:40;;;;;;;11.33;5.60;;;;;;;5.75;57.15;97250.50;5073460;28;20437;-70
2022/01/31 03:51:24;;;;;;;10.10;5.60;;;;;;;5.90;57.06;97279.72;5063852;28;20522;-72
2022/01/31 03:54:08;;;;;;;9.33;5.00;;;;;;;6.02;57.21;97292.72;5041770;28;20790;-71
2022/01/31 03:56:52;;;;;;;15.60;5.37;;;;;;;6.07;56.13;97274.97;5065917;28;20873;-71
2022/01/31 03:59:35;;;;;;;13.83;5.53;;;;;;;6.12;56.21;97272.81;5062708;28;20542;-71
2022/01/31 04:02:19;;;;;;;11.80;4.73;;;;;;;6.13;56.74;97269.28;5067290;28;20473;-70
2022/01/31 04:05:04;;;;;;;14.27;5.10;;;;;;;6.20;56.40;97265.22;5040888;28;20773;-71
2022/01/31 04:07:47;;;;;;;11.20;4.13;;;;;;;6.22;56.14;97271.13;5064655;28;20435;-71
2022/01/31 04:10:31;;;;;;;9.80;4.00;;;;;;;6.34;55.81;97271.94;5064248;28;20526;-71
2022/01/31 04:13:18;;;;;;;12.97;4.43;;;;;;;6.33;55.32;97259.88;5065964;28;20446;-71
2022/01/31 04:16:02;;;;;;;13.13;3.90;;;;;;;6.30;55.60;97266.13;5067893;28;20422;-71
2022/01/31 04:18:45;;;;;;;9.87;4.10;;;;;;;6.47;55.33;97266.53;5063882;28;20430;-71
2022/01/31 04:21:29;;;;;;;7.90;3.93;;;;;;;6.52;55.16;97259.19;5063791;28;20802;-70
2022/01/31 04:24:19;;;;;;;9.83;4.30;;;;;;;6.09;55.64;97253.09;5068326;28;20519;-71
2022/01/31 04:27:06;;;;;;;10.43;3.83;;;;;;;6.41;55.10;97254.03;5072933;28;20430;-70
2022/01/31 04:29:50;;;;;;;15.13;4.70;;;;;;;6.38;54.65;97251.69;5072514;28;20458;-71
2022/01/31 04:32:34;;;;;;;8.13;3.77;;;;;;;6.50;54.92;97235.06;5070650;28;20849;-71
2022/01/31 04:35:18;;;;;;;11.63;4.57;;;;;;;6.57;54.86;97236.19;5064504;28;20438;-72
2022/01/31 04:38:02;;;;;;;12.47;3.93;;;;;;;6.52;54.62;97232.31;5059441;28;20437;-71
2022/01/31 04:40:46;;;;;;;13.10;4.03;;;;;;;6.67;54.66;97219.81;5055575;28;20454;-72
2022/01/31 04:43:30;;;;;;;8.70;3.70;;;;;;;6.60;54.10;97216.91;5061129;28;20428;-71
2022/01/31 04:46:14;;;;;;;7.60;3.67;;;;;;;6.45;54.55;97192.94;5061883;28;20517;-71
2022/01/31 04:48:58;;;;;;;15.90;3.90;;;;;;;6.66;54.32;97187.72;5070157;28;20510;-71
2022/01/31 04:51:42;;;;;;;18.23;4.53;;;;;;;6.29;55.55;97181.22;5072919;28;20425;-71
2022/01/31 04:54:26;;;;;;;9.00;4.33;;;;;;;6.48;55.33;97166.66;5072862;28;20524;-71
2022/01/31 04:57:10;;;;;;;11.90;4.77;;;;;;;6.49;55.03;97159.69;5072946;28;20425;-72
2022/01/31 04:59:54;;;;;;;12.90;4.70;;;;;;;6.27;55.82;97141.47;5072309;28;20443;-71
2022/01/31 05:02:38;;;;;;;7.80;4.83;;;;;;;6.34;55.93;97138.34;5058468;28;20512;-71
2022/01/31 05:05:21;;;;;;;9.83;5.00;;;;;;;6.48;55.77;97125.00;5052806;28;20417;-71
2022/01/31 05:08:05;;;;;;;15.33;4.73;;;;;;;6.50;55.59;97104.88;5052624;28;20476;-71
2022/01/31 05:10:50;;;;;;;9.70;4.40;;;;;;;6.42;56.21;97112.50;5063773;28;20472;-71
2022/01/31 05:13:37;;;;;;;12.57;5.30;;;;;;;6.33;56.55;97082.84;5061477;28;20437;-71
2022/01/31 05:16:22;;;;;;;10.57;4.80;;;;;;;6.26;56.69;97074.75;5070940;28;20437;-71
2022/01/31 05:19:05;;;;;;;13.60;4.93;;;;;;;6.34;56.46;97049.81;5054111;28;20420;-71
2022/01/31 05:21:49;;;;;;;11.13;5.53;;;;;;;6.48;56.21;97033.88;5063810;28;20489;-71
2022/01/31 05:24:34;;;;;;;16.40;5.00;;;;;;;6.31;57.08;97022.28;5061572;28;20964;-71
2022/01/31 05:27:18;;;;;;;12.93;4.97;;;;;;;6.45;56.43;97014.13;5027953;28;20464;-71
2022/01/31 05:30:03;;;;;;;10.47;3.90;;;;;;;6.37;56.74;97003.53;5053030;28;20447;-71
2022/01/31 05:32:47;;;;;;;10.03;4.10;;;;;;;6.42;56.80;97005.78;5067615;28;20457;-71
2022/01/31 05:35:32;;;;;;;9.73;4.73;;;;;;;6.43;56.55;96990.00;5067599;28;20789;-71
2022/01/31 05:38:15;;;;;;;12.80;4.40;;;;;;;6.53;56.24;97007.44;5066834;28;20513;-71
2022/01/31 05:41:04;;;;;;;10.50;3.90;;;;;;;6.24;56.65;96995.97;5060988;28;20497;-71
2022/01/31 05:43:48;;;;;;;10.03;4.07;;;;;;;6.44;56.40;96990.81;5051466;28;20851;-71
2022/01/31 05:46:32;;;;;;;13.47;3.70;;;;;;;6.51;56.05;96978.94;5050852;28;20435;-71
2022/01/31 05:49:16;;;;;;;10.30;3.97;;;;;;;6.53;56.06;96978.78;5050799;28;20935;-71
2022/01/31 05:52:04;;;;;;;12.23;3.27;;;;;;;6.61;55.92;96974.56;5051296;28;20510;-71
2022/01/31 05:54:48;;;;;;;18.33;4.40;;;;;;;6.68;55.63;96974.06;5051179;28;20885;-71
2022/01/31 05:57:33;;;;;;;10.57;3.90;;;;;;;6.78;55.31;96950.63;5050925;28;20792;-71
2022/01/31 06:00:17;;;;;;;13.97;4.17;;;;;;;6.53;56.17;96943.19;5049852;28;20448;-72
2022/01/31 06:03:00;;;;;;;12.10;4.40;;;;;;;6.58;56.23;96961.81;5064911;28;20502;-71
2022/01/31 06:05:44;;;;;;;10.30;4.30;;;;;;;6.44;56.67;96943.94;5059627;28;20446;-71
2022/01/31 06:08:28;;;;;;;11.30;3.93;;;;;;;6.71;56.04;96934.69;5059538;28;20426;-70
2022/01/31 06:11:12;;;;;;;14.13;4.23;;;;;;;6.44;56.59;96939.59;5066796;28;20843;-70
2022/01/31 06:13:56;;;;;;;10.80;4.00;;;;;;;6.48;56.91;96929.72;5071016;28;20813;-71
2022/01/31 06:16:40;;;;;;;11.70;4.10;;;;;;;6.63;56.35;96921.53;5061425;28;20426;-71
2022/01/31 06:19:24;;;;;;;11.30;4.20;;;;;;;6.67;56.57;96917.72;5061885;28;20536;-71
2022/01/31 06:22:08;;;;;;;18.07;4.67;;;;;;;6.56;56.88;96903.84;5062432;28;20509;-71
2022/01/31 06:24:51;;;;;;;9.47;3.90;;;;;;;6.29;57.89;96915.72;5051680;28;20421;-71
2022/01/31 06:27:35;;;;;;;9.67;4.17;;;;;;;6.39;58.17;96922.72;5060349;28;20436;-71
2022/01/31 06:30:19;;;;;;;13.60;4.37;;;;;;;6.20;59.05;96911.28;5062479;28;20522;-71
2022/01/31 06:33:03;;;;;;;14.57;4.73;;;;;;;6.36;58.95;96912.56;5053161;28;20553;-71
2022/01/31 06:35:47;;;;;;;8.77;4.30;;;;;;;6.54;58.89;96903.16;5062000;28;20420;-71
2022/01/31 06:38:31;;;;;;;13.50;5.00;;;;;;;6.33;59.75;96903.25;5068117;28;20418;-71
2022/01/31 06:41:17;;;;;;;18.23;5.37;;;;;;;6.35;59.99;96897.91;5060185;28;20449;-71
2022/01/31 06:44:02;;;;;;;16.07;7.17;;;;;;;6.24;60.51;96897.06;5062554;28;20417;-70
2022/01/31 06:46:46;;;;;;;11.10;6.20;;;;;;;6.39;60.67;96883.66;5058607;28;20766;-70
2022/01/31 06:49:30;;;;;;;15.47;6.90;;;;;;;6.45;60.67;96883.13;5061424;28;20807;-70
2022/01/31 06:52:13;;;;;;;19.90;7.00;;;;;;;6.41;61.30;96886.97;5067469;28;20455;-70
2022/01/31 06:55:01;;;;;;;13.13;5.63;;;;;;;6.28;61.85;96902.81;5066473;28;20430;-70
2022/01/31 06:57:46;;;;;;;13.87;6.60;;;;;;;6.09;62.59;96894.00;5063197;28;20917;-70
2022/01/31 07:00:30;;;;;;;13.60;5.57;;;;;;;5.91;63.91;96900.72;5063247;28;20493;-70
2022/01/31 07:03:14;;;;;;;18.97;5.07;;;;;;;6.19;63.07;96907.03;5066380;28;20436;-71
2022/01/31 07:05:58;;;;;;;11.83;4.77;;;;;;;6.38;62.63;96902.84;5066166;28;20417;-71
2022/01/31 07:08:42;;;;;;;18.10;5.37;;;;;;;6.26;62.71;96896.91;5065722;28;20465;-71
2022/01/31 07:11:29;;;;;;;14.60;5.13;;;;;;;6.25;62.95;96903.91;5074048;28;20457;-71
2022/01/31 07:14:30;;;;;;;13.03;4.50;;;;;;;6.50;62.63;96912.19;5066052;28;20431;-71
2022/01/31 07:17:13;;;;;;;14.60;4.93;;;;;;;6.47;62.61;96909.84;5069591;28;20433;-73
2022/01/31 07:19:58;;;;;;;12.17;5.17;;;;;;;6.34;63.10;96906.66;5065220;28;20775;-72
2022/01/31 07:22:48;;;;;;;16.50;6.10;;;;;;;6.59;62.98;96915.78;5064971;28;20777;-73
2022/01/31 07:25:34;;;;;;;8.83;4.67;;;;;;;6.39;63.45;96914.91;5066336;28;20433;-72
2022/01/31 07:28:19;;;;;;;10.57;4.93;;;;;;;6.61;62.89;96925.09;5065859;28;20429;-73
2022/01/31 07:31:03;;;;;;;13.30;5.13;;;;;;;6.47;63.48;96915.06;5060289;28;20460;-73
2022/01/31 07:33:47;;;;;;;12.00;5.10;;;;;;;6.41;64.09;96907.78;5070221;28;20465;-72
2022/01/31 07:36:31;;;;;;;11.27;5.60;;;;;;;6.29;64.44;96914.88;5061741;28;20425;-72
2022/01/31 07:39:15;;;;;;;12.20;4.20;;;;;;;6.36;64.68;96917.78;5065065;28;20429;-73
2022/01/31 07:41:59;;;;;;;12.73;5.00;;;;;;;6.62;64.01;96925.91;5062066;28;20433;-73
2022/01/31 07:44:43;;;;;;;8.80;4.27;;;;;;;6.54;64.11;96921.41;5064632;28;20516;-72
2022/01/31 07:47:27;;;;;;;6.40;3.97;;;;;;;6.71;63.81;96930.31;5065103;28;20435;-73
2022/01/31 07:50:12;;;;;;;6.50;3.90;;;;;;;6.22;65.65;96935.41;5059307;28;20488;-73
2022/01/31 07:52:56;;;;;;;5.07;3.07;;;;;;;6.35;65.41;96934.34;5066879;28;20445;-73
2022/01/31 07:55:40;;;;;;;7.00;3.30;;;;;;;6.48;64.89;96940.13;5063939;28;20461;-73
2022/01/31 07:58:24;;;;;;;8.10;3.23;;;;;;;6.53;64.81;96948.38;5065317;28;20422;-73
2022/01/31 08:01:08;;;;;;;10.30;3.10;;;;;;;6.53;64.65;96964.00;5073205;28;20450;-73
2022/01/31 08:03:53;;;;;;;7.43;2.73;;;;;;;6.50;65.12;96956.44;5067873;28;20418;-73
2022/01/31 08:06:37;;;;;;;12.27;4.57;;;;;;;6.61;64.92;96956.34;5063409;28;20439;-73
2022/01/31 08:09:20;;;;;;;4.70;2.90;;;;;;;6.49;65.11;96943.59;5064536;28;20448;-72
2022/01/31 08:12:05;;;;;;;4.93;2.57;;;;;;;6.47;65.41;96948.91;5051582;28;20422;-71
2022/01/31 08:14:49;;;;;;;3.90;2.63;;;;;;;6.65;65.05;96949.09;5046718;28;20811;-71
2022/01/31 08:17:33;;;;;;;4.00;2.50;;;;;;;6.69;64.86;96947.03;5060093;28;20443;-71
2022/01/31 08:20:17;;;;;;;3.57;2.43;;;;;;;6.87;64.13;96937.59;5060869;28;20474;-72
2022/01/31 08:23:01;;;;;;;10.37;2.50;;;;;;;6.79;64.54;96947.06;5052840;28;20423;-72
2022/01/31 08:25:49;;;;;;;4.60;2.40;;;;;;;6.87;64.08;96944.59;5062256;28;20435;-72
2022/01/31 08:28:40;;;;;;;16.43;9.80;;;;;;;7.17;67.81;96951.50;5070329;28;20437;-72
2022/01/31 08:31:36;;;;;;;5.20;2.17;;;;;;;7.24;64.10;96956.97;5059878;28;20458;-72
2022/01/31 08:37:24;;;;;;;2.57;1.57;;;;;;;7.28;62.86;96973.16;5069416;28;20782;-73
2022/01/31 08:40:09;;;;;;;5.93;1.90;;;;;;;7.29;62.95;96967.81;5063348;28;20466;-73
2022/01/31 08:42:52;;;;;;;3.07;1.90;;;;;;;7.25;62.92;96968.22;5056498;28;20423;-74
2022/01/31 08:45:36;;;;;;;7.67;2.17;;;;;;;7.26;63.01;96965.47;5061972;28;20470;-73
2022/01/31 08:48:20;;;;;;;1.70;1.60;;;;;;;7.14;63.44;96956.97;5065068;28;20558;-72
2022/01/31 08:51:06;;;;;;;1.50;1.37;;;;;;;7.25;63.21;96949.97;5060128;28;20460;-71
2022/01/31 08:53:51;;;;;;;3.80;1.40;;;;;;;7.35;62.82;96956.00;5056685;28;20958;-72
2022/01/31 08:56:40;;;;;;;2.20;1.70;;;;;;;7.65;62.30;96949.78;5045933;28;20429;-75
2022/01/31 08:59:26;;;;;;;6.30;1.40;;;;;;;7.76;62.02;96935.78;5062448;28;20449;-73
2022/01/31 09:02:14;;;;;;;1.60;1.03;;;;;;;7.70;61.68;96936.31;5063990;28;20421;-72
2022/01/31 09:04:58;;;;;;;3.37;1.40;;;;;;;8.23;60.26;96921.03;5056402;28;20479;-72
2022/01/31 09:07:42;;;;;;;2.80;1.63;;;;;;;8.58;59.54;96924.75;5071877;28;20924;-71
2022/01/31 09:10:26;;;;;;;2.67;1.40;;;;;;;8.74;58.39;96930.16;5071171;28;20467;-70
2022/01/31 09:13:12;;;;;;;2.60;1.30;;;;;;;8.87;56.78;96923.75;5063401;28;20518;-71
2022/01/31 09:15:57;;;;;;;2.13;1.43;;;;;;;8.76;57.09;96923.00;5065743;28;20448;-71
2022/01/31 09:18:41;;;;;;;3.43;1.60;;;;;;;9.00;56.21;96907.69;5068236;28;20452;-70
2022/01/31 09:21:25;;;;;;;2.50;1.73;;;;;;;9.12;55.90;96916.13;5063196;28;20458;-71
2022/01/31 09:24:09;;;;;;;2.53;1.33;;;;;;;9.30;54.85;96913.50;5063624;28;20520;-71
2022/01/31 09:26:53;;;;;;;2.33;1.40;;;;;;;9.31;54.39;96897.66;5056535;28;20462;-70
2022/01/31 09:29:36;;;;;;;2.70;1.70;;;;;;;9.57;53.94;96904.72;5062571;28;20453;-70
2022/01/31 09:32:24;;;;;;;4.10;1.50;;;;;;;9.55;53.17;96911.91;5063044;28;20424;-70
2022/01/31 09:35:08;;;;;;;2.47;1.30;;;;;;;9.48;53.29;96903.84;5052710;28;20430;-70
2022/01/31 09:37:52;;;;;;;2.60;1.53;;;;;;;9.64;52.97;96908.34;5028709;28;20434;-70
2022/01/31 09:40:36;;;;;;;2.30;1.23;;;;;;;9.60;53.34;96911.44;5070162;28;20448;-70
2022/01/31 09:48:51;;;;;;;2.50;1.60;;;;;;;8.99;53.74;96901.63;5062756;28;20429;-70
2022/01/31 09:51:35;;;;;;;1.57;1.30;;;;;;;9.17;53.95;96909.47;5045423;28;20482;-71
2022/01/31 09:54:19;;;;;;;3.93;1.40;;;;;;;9.33;54.05;96906.16;5063094;28;20439;-70
2022/01/31 09:57:03;;;;;;;3.67;1.77;;;;;;;9.27;53.50;96904.16;5062423;28;20472;-71
2022/01/31 09:59:46;;;;;;;3.60;1.63;;;;;;;9.19;53.10;96904.91;5061339;28;20441;-69
2022/01/31 10:02:30;;;;;;;2.10;1.90;;;;;;;9.18;53.49;96899.84;5060982;28;21304;-71
2022/01/31 10:05:27;;;;;;;2.63;1.53;;;;;;;9.05;53.90;96897.59;5059627;28;20470;-71
2022/01/31 10:08:13;;;;;;;3.30;1.87;;;;;;;8.98;53.28;96899.19;5058966;28;20532;-70
2022/01/31 10:11:02;;;;;;;7.07;2.00;;;;;;;9.06;53.08;96897.47;5058220;28;20466;-70
2022/01/31 10:16:48;;;;;;;3.43;1.63;;;;;;;8.71;53.66;96917.38;5055020;28;20926;-69
2022/01/31 10:19:43;;;;;;;3.63;1.60;;;;;;;8.40;54.15;96917.69;5053605;28;20479;-71
2022/01/31 10:22:30;;;;;;;3.23;1.90;;;;;;;8.61;53.41;96916.63;5043980;28;20428;-70
2022/01/31 10:25:17;;;;;;;6.03;1.80;;;;;;;8.57;53.11;96913.47;5046302;28;20861;-70
2022/01/31 10:28:01;;;;;;;2.80;1.57;;;;;;;8.59;53.73;96906.31;5056431;28;20427;-70
2022/01/31 10:30:46;;;;;;;3.57;2.10;;;;;;;8.39;53.70;96909.97;5064184;28;20463;-70
2022/01/31 10:33:33;;;;;;;4.17;1.90;;;;;;;8.62;52.88;96913.03;5073250;28;20813;-69
2022/01/31 10:36:20;;;;;;;8.57;1.83;;;;;;;8.65;52.72;96899.69;5057576;28;20437;-70
2022/01/31 10:39:14;;;;;;;2.13;1.50;;;;;;;8.88;52.05;96892.22;5060347;28;20431;-71
2022/01/31 10:57:21;;;;;;;5.47;1.30;;;;;;;9.63;49.47;96862.22;5074192;28;20934;-70
2022/01/31 11:00:05;;;;;;;4.07;1.77;;;;;;;9.70;48.76;96861.63;5074037;28;20445;-70
2022/01/31 11:02:49;;;;;;;3.10;1.60;;;;;;;9.51;48.86;96858.22;5065189;28;20513;-70
2022/01/31 11:05:33;;;;;;;3.30;1.60;;;;;;;9.33;49.06;96864.31;5063955;28;20434;-70
2022/01/31 11:08:17;;;;;;;1.97;1.50;;;;;;;9.24;49.46;96861.81;5062027;28;20948;-70
2022/01/31 11:11:02;;;;;;;3.83;2.00;;;;;;;9.35;49.15;96866.78;5066731;28;20471;-71
2022/01/31 11:13:48;;;;;;;4.70;1.90;;;;;;;9.44;48.99;96878.94;5065241;28;20440;-70
2022/01/31 11:16:32;;;;;;;3.23;1.60;;;;;;;9.19;50.25;96867.50;5049197;28;20558;-69
2022/01/31 11:19:23;;;;;;;2.30;1.67;;;;;;;8.82;51.11;96864.09;5052132;28;20433;-70
2022/01/31 11:22:10;;;;;;;6.00;1.77;;;;;;;8.85;51.18;96862.94;5059096;28;20440;-71
2022/01/31 11:24:59;;;;;;;2.50;1.63;;;;;;;9.04;50.84;96870.66;5058395;28;20434;-72
2022/01/31 11:27:43;;;;;;;3.17;1.70;;;;;;;8.93;50.80;96855.22;5073406;28;20440;-71
2022/01/31 11:30:28;;;;;;;3.23;1.73;;;;;;;9.24;50.74;96867.03;5063146;28;20458;-69
2022/01/31 11:33:12;;;;;;;2.20;1.50;;;;;;;9.00;51.39;96871.09;5063948;28;20850;-69
2022/01/31 11:35:57;;;;;;;2.50;1.37;;;;;;;9.03;51.98;96882.06;5061617;28;20931;-71
2022/01/31 11:38:42;;;;;;;5.07;1.77;;;;;;;8.89;52.04;96886.03;5063112;28;20434;-70
2022/01/31 11:41:26;;;;;;;7.73;1.80;;;;;;;9.01;52.00;96889.25;5071315;28;20482;-71
2022/01/31 11:44:29;;;;;;;3.50;1.40;;;;;;;8.76;52.87;96885.56;5053186;28;20427;-71
2022/01/31 11:47:13;;;;;;;3.30;1.70;;;;;;;8.65;52.93;96888.41;5062388;28;20430;-71
2022/01/31 11:50:07;;;;;;;4.50;1.60;;;;;;;8.74;53.14;96883.13;5058098;28;20488;-71
2022/01/31 11:52:58;;;;;;;4.20;1.70;;;;;;;8.64;53.38;96879.75;5064081;28;20423;-71
2022/01/31 11:55:42;;;;;;;3.53;1.73;;;;;;;8.38;54.37;96887.47;5061057;28;20428;-70
2022/01/31 11:58:26;;;;;;;5.27;1.87;;;;;;;8.49;53.79;96886.44;5057776;28;20446;-71
2022/01/31 12:01:10;;;;;;;4.53;2.13;;;;;;;8.18;54.70;96890.16;5052300;28;20555;-71
2022/01/31 12:03:56;;;;;;;3.27;1.33;;;;;;;8.26;54.74;96886.81;5049270;28;20992;-70
2022/01/31 12:06:40;;;;;;;7.70;1.70;;;;;;;8.20;54.48;96890.00;5056197;28;20436;-70
2022/01/31 12:09:27;;;;;;;1.53;1.30;;;;;;;8.19;54.86;96877.94;5047791;28;20848;-70
2022/01/31 12:12:35;;;;;;;6.30;1.57;;;;;;;8.14;55.12;96886.19;5066411;28;20942;-70
2022/01/31 12:24:42;;;;;;;7.53;1.97;;;;;;;8.14;55.25;96873.97;5063382;28;20431;-70
2022/01/31 12:27:28;;;;;;;2.53;1.50;;;;;;;8.19;55.06;96867.50;5063432;28;20736;-70
2022/01/31 12:30:29;;;;;;;2.70;1.33;;;;;;;7.97;56.20;96861.66;5067483;28;20471;-70
2022/01/31 12:33:41;;;;;;;3.43;1.50;;;;;;;8.07;55.83;96875.50;5062225;28;20975;-70
2022/01/31 12:36:45;;;;;;;7.07;1.65;;;;;;;8.07;55.58;96861.63;5056889;28;20988;-69
2022/01/31 12:39:29;;;;;;;5.03;1.60;;;;;;;8.08;55.52;96851.03;5063379;28;20235;-71
2022/01/31 12:42:43;;;;;;;4.07;1.63;;;;;;;8.02;55.87;96854.25;5071928;28;21015;-71
2022/01/31 12:45:27;;;;;;;16.23;2.20;;;;;;;7.83;56.27;96850.75;5058247;28;20429;-70
2022/01/31 12:48:14;;;;;;;6.00;1.93;;;;;;;7.54;56.95;96856.06;5059933;28;20429;-70
2022/01/31 12:51:01;;;;;;;2.50;1.83;;;;;;;7.64;57.27;96841.19;5059088;28;20468;-71
2022/01/31 12:53:47;;;;;;;4.57;1.70;;;;;;;8.03;57.00;96852.44;5035695;28;20479;-71
2022/01/31 12:56:31;;;;;;;3.70;1.60;;;;;;;7.84;56.62;96839.34;5051057;28;20478;-71
2022/01/31 12:59:17;;;;;;;4.47;1.80;;;;;;;7.80;57.41;96842.38;5063107;28;20201;-71
2022/01/31 13:02:05;;;;;;;3.20;1.70;;;;;;;8.09;56.67;96842.25;5059551;28;20641;-71
2022/01/31 13:04:48;;;;;;;4.40;1.70;;;;;;;8.00;56.18;96841.31;5044716;28;20600;-70
2022/01/31 13:07:32;;;;;;;3.70;1.67;;;;;;;8.06;56.57;96846.94;5061304;28;20431;-70
2022/01/31 13:10:16;;;;;;;4.50;1.83;;;;;;;7.86;57.11;96825.34;5063394;28;20463;-69
2022/01/31 13:13:01;;;;;;;6.03;1.87;;;;;;;7.96;56.80;96839.16;5053735;28;20426;-69
2022/01/31 13:15:45;;;;;;;5.10;2.00;;;;;;;7.65;57.75;96842.84;5070379;28;20445;-69
2022/01/31 13:18:32;;;;;;;2.80;1.40;;;;;;;7.34;57.83;96842.25;5060339;28;20425;-69
2022/01/31 13:21:17;;;;;;;4.83;1.70;;;;;;;7.34;58.50;96837.88;5064113;28;20464;-69
2022/01/31 13:24:01;;;;;;;6.10;1.60;;;;;;;7.54;58.32;96840.41;5063634;28;20432;-69
2022/01/31 13:26:56;;;;;;;2.63;1.43;;;;;;;7.67;57.98;96834.91;5059566;28;21030;-70
2022/01/31 13:29:41;;;;;;;6.00;1.50;;;;;;;7.55;57.85;96851.69;5061992;28;20484;-70
2022/01/31 13:32:31;;;;;;;3.47;1.73;;;;;;;7.53;57.98;96823.13;5062066;28;20427;-70
2022/01/31 13:35:18;;;;;;;2.73;1.40;;;;;;;7.50;58.38;96832.06;5066806;28;20425;-69
2022/01/31 13:38:07;;;;;;;3.80;1.53;;;;;;;7.82;57.70;96830.84;5056846;28;20786;-69